sensor_id;sensor_type;location;lat;lon;timestamp;P1;durP1;ratioP1;P2;durP2;ratioP2
8100;SDS011;4093;53.470;9.832;2022-07-10T00:02:11;3.80;;;1.93;;
8100;SDS011;4093;53.470;9.832;2022-07-10T00:04:38;1.90;;;1.60;;
8100;SDS011;4093;53.470;9.832;2022-07-10T00:07:04;3.30;;;1.70;;
8100;SDS011;4093;53.470;9.832;2022-07-10T00:09:32;4.37;;;1.93;;
8100;SDS011;4093;53.470;9.832;2022-07-10T00:11:59;3.90;;;1.70;;
8100;SDS011;4093;53.470;9.832;2022-07-10T00:14:26;4.17;;;1.53;;
8100;SDS011;4093;53.470;9.832;2022-07-10T00:16:52;2.60;;;1.50;;
8100;SDS011;4093;53.470;9.832;2022-07-10T00:19:19;3.63;;;1.73;;
8100;SDS011;4093;53.470;9.832;2022-07-10T00:21:46;3.57;;;1.80;;
8100;SDS011;4093;53.470;9.832;2022-07-10T00:24:12;2.77;;;1.50;;
8100;SDS011;4093;53.470;9.832;2022-07-10T00:26:40;4.57;;;2.00;;
8100;SDS011;4093;53.470;9.832;2022-07-10T00:29:07;3.97;;;1.70;;
8100;SDS011;4093;53.470;9.832;2022-07-10T00:31:34;3.13;;;1.50;;
8100;SDS011;4093;53.470;9.832;2022-07-10T00:34:00;3.77;;;1.57;;
8100;SDS011;4093;53.470;9.832;2022-07-10T00:36:27;5.37;;;1.80;;
8100;SDS011;4093;53.470;9.832;2022-07-10T00:38:53;3.97;;;1.90;;
8100;SDS011;4093;53.470;9.832;2022-07-10T00:41:20;4.10;;;1.83;;
8100;SDS011;4093;53.470;9.832;2022-07-10T00:43:54;2.77;;;1.57;;
8100;SDS011;4093;53.470;9.832;2022-07-10T00:46:22;2.20;;;1.60;;
8100;SDS011;4093;53.470;9.832;2022-07-10T00:48:49;2.13;;;1.90;;
8100;SDS011;4093;53.470;9.832;2022-07-10T00:51:17;3.03;;;1.50;;
8100;SDS011;4093;53.470;9.832;2022-07-10T00:53:46;6.10;;;1.60;;
8100;SDS011;4093;53.470;9.832;2022-07-10T00:56:15;4.50;;;1.60;;
8100;SDS011;4093;53.470;9.832;2022-07-10T00:58:43;5.13;;;1.77;;
8100;SDS011;4093;53.470;9.832;2022-07-10T01:01:11;3.17;;;1.63;;
8100;SDS011;4093;53.470;9.832;2022-07-10T01:03:38;4.00;;;1.67;;
8100;SDS011;4093;53.470;9.832;2022-07-10T01:06:04;5.13;;;2.30;;
8100;SDS011;4093;53.470;9.832;2022-07-10T01:08:31;2.93;;;1.50;;
8100;SDS011;4093;53.470;9.832;2022-07-10T01:10:58;5.67;;;2.30;;
8100;SDS011;4093;53.470;9.832;2022-07-10T01:13:26;2.13;;;1.53;;
8100;SDS011;4093;53.470;9.832;2022-07-10T01:15:53;7.27;;;2.53;;
8100;SDS011;4093;53.470;9.832;2022-07-10T01:18:21;3.13;;;1.70;;
8100;SDS011;4093;53.470;9.832;2022-07-10T01:20:52;2.50;;;1.50;;
8100;SDS011;4093;53.470;9.832;2022-07-10T01:23:18;2.67;;;1.50;;
8100;SDS011;4093;53.470;9.832;2022-07-10T01:25:45;6.17;;;2.07;;
8100;SDS011;4093;53.470;9.832;2022-07-10T01:28:12;6.90;;;2.03;;
8100;SDS011;4093;53.470;9.832;2022-07-10T01:30:39;5.73;;;1.60;;
8100;SDS011;4093;53.470;9.832;2022-07-10T01:33:06;8.00;;;2.27;;
8100;SDS011;4093;53.470;9.832;2022-07-10T01:35:32;4.03;;;1.60;;
8100;SDS011;4093;53.470;9.832;2022-07-10T01:38:00;4.47;;;1.80;;
8100;SDS011;4093;53.470;9.832;2022-07-10T01:40:27;5.20;;;1.60;;
8100;SDS011;4093;53.470;9.832;2022-07-10T01:42:54;3.17;;;1.80;;
8100;SDS011;4093;53.470;9.832;2022-07-10T01:45:20;8.90;;;2.00;;
8100;SDS011;4093;53.470;9.832;2022-07-10T01:47:47;4.30;;;2.10;;
8100;SDS011;4093;53.470;9.832;2022-07-10T01:50:14;6.73;;;2.10;;
8100;SDS011;4093;53.470;9.832;2022-07-10T01:52:40;7.80;;;2.00;;
8100;SDS011;4093;53.470;9.832;2022-07-10T01:55:08;3.53;;;1.80;;
8100;SDS011;4093;53.470;9.832;2022-07-10T01:57:35;4.90;;;2.10;;
8100;SDS011;4093;53.470;9.832;2022-07-10T02:00:02;4.67;;;1.80;;
8100;SDS011;4093;53.470;9.832;2022-07-10T02:02:30;4.00;;;1.70;;
8100;SDS011;4093;53.470;9.832;2022-07-10T02:04:56;6.33;;;2.37;;
8100;SDS011;4093;53.470;9.832;2022-07-10T02:07:22;8.40;;;2.83;;
8100;SDS011;4093;53.470;9.832;2022-07-10T02:09:51;6.37;;;2.00;;
8100;SDS011;4093;53.470;9.832;2022-07-10T02:12:19;5.40;;;1.80;;
8100;SDS011;4093;53.470;9.832;2022-07-10T02:14:45;6.87;;;2.20;;
8100;SDS011;4093;53.470;9.832;2022-07-10T02:17:12;5.53;;;1.83;;
8100;SDS011;4093;53.470;9.832;2022-07-10T02:19:41;5.90;;;1.93;;
8100;SDS011;4093;53.470;9.832;2022-07-10T02:22:07;6.67;;;1.90;;
8100;SDS011;4093;53.470;9.832;2022-07-10T02:24:34;4.27;;;2.00;;
8100;SDS011;4093;53.470;9.832;2022-07-10T02:27:00;6.73;;;2.10;;
8100;SDS011;4093;53.470;9.832;2022-07-10T02:29:28;6.90;;;2.10;;
8100;SDS011;4093;53.470;9.832;2022-07-10T02:31:55;9.03;;;2.07;;
8100;SDS011;4093;53.470;9.832;2022-07-10T02:34:22;6.30;;;1.90;;
8100;SDS011;4093;53.470;9.832;2022-07-10T02:36:48;4.57;;;2.10;;
8100;SDS011;4093;53.470;9.832;2022-07-10T02:39:15;3.37;;;1.87;;
8100;SDS011;4093;53.470;9.832;2022-07-10T02:41:42;6.73;;;2.27;;
8100;SDS011;4093;53.470;9.832;2022-07-10T02:44:08;5.50;;;2.50;;
8100;SDS011;4093;53.470;9.832;2022-07-10T02:46:36;8.57;;;2.53;;
8100;SDS011;4093;53.470;9.832;2022-07-10T02:49:03;7.77;;;2.40;;
8100;SDS011;4093;53.470;9.832;2022-07-10T02:51:30;7.37;;;2.60;;
8100;SDS011;4093;53.470;9.832;2022-07-10T02:53:56;4.67;;;2.00;;
8100;SDS011;4093;53.470;9.832;2022-07-10T02:56:23;7.07;;;2.20;;
8100;SDS011;4093;53.470;9.832;2022-07-10T02:58:50;4.83;;;2.20;;
8100;SDS011;4093;53.470;9.832;2022-07-10T03:01:16;9.47;;;2.70;;
8100;SDS011;4093;53.470;9.832;2022-07-10T03:03:44;5.40;;;2.43;;
8100;SDS011;4093;53.470;9.832;2022-07-10T03:06:11;7.80;;;2.27;;
8100;SDS011;4093;53.470;9.832;2022-07-10T03:08:37;8.87;;;2.83;;
8100;SDS011;4093;53.470;9.832;2022-07-10T03:11:04;5.40;;;2.70;;
8100;SDS011;4093;53.470;9.832;2022-07-10T03:13:30;6.30;;;2.40;;
8100;SDS011;4093;53.470;9.832;2022-07-10T03:15:57;6.10;;;2.40;;
8100;SDS011;4093;53.470;9.832;2022-07-10T03:18:24;7.07;;;2.50;;
8100;SDS011;4093;53.470;9.832;2022-07-10T03:20:52;7.87;;;2.47;;
8100;SDS011;4093;53.470;9.832;2022-07-10T03:23:18;8.07;;;2.53;;
8100;SDS011;4093;53.470;9.832;2022-07-10T03:25:45;8.73;;;2.53;;
8100;SDS011;4093;53.470;9.832;2022-07-10T03:28:11;8.27;;;3.10;;
8100;SDS011;4093;53.470;9.832;2022-07-10T03:30:38;6.53;;;2.20;;
8100;SDS011;4093;53.470;9.832;2022-07-10T03:33:05;7.00;;;2.53;;
8100;SDS011;4093;53.470;9.832;2022-07-10T03:35:31;5.87;;;2.70;;
8100;SDS011;4093;53.470;9.832;2022-07-10T03:37:59;6.47;;;2.37;;
8100;SDS011;4093;53.470;9.832;2022-07-10T03:40:26;10.03;;;2.43;;
8100;SDS011;4093;53.470;9.832;2022-07-10T03:42:53;7.10;;;2.73;;
8100;SDS011;4093;53.470;9.832;2022-07-10T03:45:20;6.83;;;3.00;;
8100;SDS011;4093;53.470;9.832;2022-07-10T03:47:47;7.63;;;2.67;;
8100;SDS011;4093;53.470;9.832;2022-07-10T03:50:13;7.80;;;2.63;;
8100;SDS011;4093;53.470;9.832;2022-07-10T03:52:40;12.17;;;3.40;;
8100;SDS011;4093;53.470;9.832;2022-07-10T03:55:08;8.27;;;2.83;;
8100;SDS011;4093;53.470;9.832;2022-07-10T03:57:35;8.83;;;3.03;;
8100;SDS011;4093;53.470;9.832;2022-07-10T04:00:19;10.27;;;2.97;;
8100;SDS011;4093;53.470;9.832;2022-07-10T04:02:47;5.90;;;2.83;;
8100;SDS011;4093;53.470;9.832;2022-07-10T04:05:13;10.93;;;2.73;;
8100;SDS011;4093;53.470;9.832;2022-07-10T04:07:40;10.63;;;3.10;;
8100;SDS011;4093;53.470;9.832;2022-07-10T04:10:09;7.70;;;2.77;;
8100;SDS011;4093;53.470;9.832;2022-07-10T04:12:36;8.67;;;3.30;;
8100;SDS011;4093;53.470;9.832;2022-07-10T04:15:02;6.23;;;2.50;;
8100;SDS011;4093;53.470;9.832;2022-07-10T04:17:30;8.30;;;2.80;;
8100;SDS011;4093;53.470;9.832;2022-07-10T04:19:57;9.67;;;3.20;;
8100;SDS011;4093;53.470;9.832;2022-07-10T04:22:24;8.97;;;3.00;;
8100;SDS011;4093;53.470;9.832;2022-07-10T04:24:50;8.20;;;3.23;;
8100;SDS011;4093;53.470;9.832;2022-07-10T04:27:19;10.23;;;3.20;;
8100;SDS011;4093;53.470;9.832;2022-07-10T04:29:45;9.57;;;3.23;;
8100;SDS011;4093;53.470;9.832;2022-07-10T04:32:12;10.47;;;3.10;;
8100;SDS011;4093;53.470;9.832;2022-07-10T04:34:39;7.53;;;2.80;;
8100;SDS011;4093;53.470;9.832;2022-07-10T04:37:05;10.53;;;3.00;;
8100;SDS011;4093;53.470;9.832;2022-07-10T04:39:32;10.37;;;3.27;;
8100;SDS011;4093;53.470;9.832;2022-07-10T04:41:59;9.70;;;2.80;;
8100;SDS011;4093;53.470;9.832;2022-07-10T04:44:27;10.37;;;3.33;;
8100;SDS011;4093;53.470;9.832;2022-07-10T04:46:54;9.17;;;3.10;;
8100;SDS011;4093;53.470;9.832;2022-07-10T04:49:21;14.80;;;3.13;;
8100;SDS011;4093;53.470;9.832;2022-07-10T04:51:47;12.93;;;3.60;;
8100;SDS011;4093;53.470;9.832;2022-07-10T04:54:14;12.20;;;3.20;;
8100;SDS011;4093;53.470;9.832;2022-07-10T04:56:41;12.40;;;3.00;;
8100;SDS011;4093;53.470;9.832;2022-07-10T04:59:07;9.57;;;3.30;;
8100;SDS011;4093;53.470;9.832;2022-07-10T05:01:36;6.87;;;3.20;;
8100;SDS011;4093;53.470;9.832;2022-07-10T05:04:03;9.10;;;3.10;;
8100;SDS011;4093;53.470;9.832;2022-07-10T05:06:30;11.33;;;3.33;;
8100;SDS011;4093;53.470;9.832;2022-07-10T05:08:57;13.73;;;3.53;;
8100;SDS011;4093;53.470;9.832;2022-07-10T05:11:24;9.38;;;3.13;;
8100;SDS011;4093;53.470;9.832;2022-07-10T05:13:52;9.05;;;3.65;;
8100;SDS011;4093;53.470;9.832;2022-07-10T05:16:18;9.10;;;2.97;;
8100;SDS011;4093;53.470;9.832;2022-07-10T05:18:46;11.43;;;3.10;;
8100;SDS011;4093;53.470;9.832;2022-07-10T05:21:13;8.48;;;3.08;;
8100;SDS011;4093;53.470;9.832;2022-07-10T05:23:40;7.50;;;2.92;;
8100;SDS011;4093;53.470;9.832;2022-07-10T05:26:07;8.90;;;3.40;;
8100;SDS011;4093;53.470;9.832;2022-07-10T05:28:33;11.70;;;2.63;;
8100;SDS011;4093;53.470;9.832;2022-07-10T05:31:01;10.40;;;2.80;;
8100;SDS011;4093;53.470;9.832;2022-07-10T05:33:28;12.02;;;3.15;;
8100;SDS011;4093;53.470;9.832;2022-07-10T05:35:56;11.15;;;3.05;;
8100;SDS011;4093;53.470;9.832;2022-07-10T05:38:23;8.32;;;2.90;;
8100;SDS011;4093;53.470;9.832;2022-07-10T05:40:50;12.02;;;3.35;;
8100;SDS011;4093;53.470;9.832;2022-07-10T05:43:18;8.65;;;3.22;;
8100;SDS011;4093;53.470;9.832;2022-07-10T05:45:44;11.23;;;3.33;;
8100;SDS011;4093;53.470;9.832;2022-07-10T05:48:12;13.43;;;3.35;;
8100;SDS011;4093;53.470;9.832;2022-07-10T05:50:38;9.80;;;3.20;;
8100;SDS011;4093;53.470;9.832;2022-07-10T05:53:06;13.13;;;2.97;;
8100;SDS011;4093;53.470;9.832;2022-07-10T05:55:33;5.93;;;3.10;;
8100;SDS011;4093;53.470;9.832;2022-07-10T05:57:59;9.57;;;3.00;;
8100;SDS011;4093;53.470;9.832;2022-07-10T06:00:26;11.45;;;3.15;;
8100;SDS011;4093;53.470;9.832;2022-07-10T06:02:52;11.77;;;3.22;;
8100;SDS011;4093;53.470;9.832;2022-07-10T06:05:19;9.48;;;2.83;;
8100;SDS011;4093;53.470;9.832;2022-07-10T06:07:46;10.50;;;3.25;;
8100;SDS011;4093;53.470;9.832;2022-07-10T06:10:14;13.55;;;3.17;;
8100;SDS011;4093;53.470;9.832;2022-07-10T06:12:42;14.73;;;3.10;;
8100;SDS011;4093;53.470;9.832;2022-07-10T06:15:09;12.57;;;3.43;;
8100;SDS011;4093;53.470;9.832;2022-07-10T06:17:36;13.13;;;3.60;;
8100;SDS011;4093;53.470;9.832;2022-07-10T06:20:03;12.30;;;3.50;;
8100;SDS011;4093;53.470;9.832;2022-07-10T06:22:30;9.88;;;3.08;;
8100;SDS011;4093;53.470;9.832;2022-07-10T06:24:56;11.50;;;3.20;;
8100;SDS011;4093;53.470;9.832;2022-07-10T06:27:24;11.75;;;3.20;;
8100;SDS011;4093;53.470;9.832;2022-07-10T06:29:51;13.77;;;3.42;;
8100;SDS011;4093;53.470;9.832;2022-07-10T06:32:18;9.95;;;3.22;;
8100;SDS011;4093;53.470;9.832;2022-07-10T06:34:44;11.95;;;3.40;;
8100;SDS011;4093;53.470;9.832;2022-07-10T06:37:11;10.15;;;2.88;;
8100;SDS011;4093;53.470;9.832;2022-07-10T06:39:38;10.95;;;3.30;;
8100;SDS011;4093;53.470;9.832;2022-07-10T06:42:05;10.07;;;2.75;;
8100;SDS011;4093;53.470;9.832;2022-07-10T06:44:33;12.25;;;3.47;;
8100;SDS011;4093;53.470;9.832;2022-07-10T06:47:00;10.90;;;3.47;;
8100;SDS011;4093;53.470;9.832;2022-07-10T06:49:44;11.15;;;3.45;;
8100;SDS011;4093;53.470;9.832;2022-07-10T06:52:13;9.25;;;3.58;;
8100;SDS011;4093;53.470;9.832;2022-07-10T06:54:39;9.95;;;3.25;;
8100;SDS011;4093;53.470;9.832;2022-07-10T06:57:07;9.90;;;3.58;;
8100;SDS011;4093;53.470;9.832;2022-07-10T06:59:35;10.73;;;2.80;;
8100;SDS011;4093;53.470;9.832;2022-07-10T07:02:03;8.50;;;3.58;;
8100;SDS011;4093;53.470;9.832;2022-07-10T07:04:31;8.55;;;2.85;;
8100;SDS011;4093;53.470;9.832;2022-07-10T07:06:58;7.35;;;2.85;;
8100;SDS011;4093;53.470;9.832;2022-07-10T07:09:24;8.48;;;2.70;;
8100;SDS011;4093;53.470;9.832;2022-07-10T07:11:51;7.40;;;2.58;;
8100;SDS011;4093;53.470;9.832;2022-07-10T07:14:18;10.27;;;3.00;;
8100;SDS011;4093;53.470;9.832;2022-07-10T07:16:46;8.55;;;2.90;;
8100;SDS011;4093;53.470;9.832;2022-07-10T07:19:23;9.10;;;2.95;;
8100;SDS011;4093;53.470;9.832;2022-07-10T07:21:55;9.60;;;3.00;;
8100;SDS011;4093;53.470;9.832;2022-07-10T07:24:40;11.80;;;3.03;;
8100;SDS011;4093;53.470;9.832;2022-07-10T07:27:07;7.50;;;2.55;;
8100;SDS011;4093;53.470;9.832;2022-07-10T07:29:33;7.22;;;2.60;;
8100;SDS011;4093;53.470;9.832;2022-07-10T07:32:01;11.18;;;2.75;;
8100;SDS011;4093;53.470;9.832;2022-07-10T07:34:29;10.13;;;2.42;;
8100;SDS011;4093;53.470;9.832;2022-07-10T07:36:56;12.35;;;2.95;;
8100;SDS011;4093;53.470;9.832;2022-07-10T07:39:22;7.57;;;2.63;;
8100;SDS011;4093;53.470;9.832;2022-07-10T07:41:49;6.93;;;2.60;;
8100;SDS011;4093;53.470;9.832;2022-07-10T07:44:16;10.98;;;3.05;;
8100;SDS011;4093;53.470;9.832;2022-07-10T07:46:43;11.52;;;2.95;;
8100;SDS011;4093;53.470;9.832;2022-07-10T07:49:11;7.85;;;3.20;;
8100;SDS011;4093;53.470;9.832;2022-07-10T07:51:37;7.97;;;2.78;;
8100;SDS011;4093;53.470;9.832;2022-07-10T07:54:04;8.40;;;2.78;;
8100;SDS011;4093;53.470;9.832;2022-07-10T07:56:31;6.88;;;2.67;;
8100;SDS011;4093;53.470;9.832;2022-07-10T07:58:57;9.05;;;2.80;;
8100;SDS011;4093;53.470;9.832;2022-07-10T08:01:24;7.32;;;2.55;;
8100;SDS011;4093;53.470;9.832;2022-07-10T08:03:50;12.45;;;2.92;;
8100;SDS011;4093;53.470;9.832;2022-07-10T08:06:19;8.02;;;3.25;;
8100;SDS011;4093;53.470;9.832;2022-07-10T08:08:45;7.80;;;2.38;;
8100;SDS011;4093;53.470;9.832;2022-07-10T08:11:12;10.55;;;3.22;;
8100;SDS011;4093;53.470;9.832;2022-07-10T08:13:39;6.93;;;2.80;;
8100;SDS011;4093;53.470;9.832;2022-07-10T08:16:05;6.53;;;2.22;;
8100;SDS011;4093;53.470;9.832;2022-07-10T08:18:32;7.38;;;2.50;;
8100;SDS011;4093;53.470;9.832;2022-07-10T08:20:59;8.50;;;2.45;;
8100;SDS011;4093;53.470;9.832;2022-07-10T08:23:27;7.88;;;2.88;;
8100;SDS011;4093;53.470;9.832;2022-07-10T08:25:54;6.22;;;2.50;;
8100;SDS011;4093;53.470;9.832;2022-07-10T08:28:20;9.25;;;2.67;;
8100;SDS011;4093;53.470;9.832;2022-07-10T08:30:47;12.77;;;2.78;;
8100;SDS011;4093;53.470;9.832;2022-07-10T08:33:13;7.75;;;2.78;;
8100;SDS011;4093;53.470;9.832;2022-07-10T08:35:40;9.93;;;2.92;;
8100;SDS011;4093;53.470;9.832;2022-07-10T08:38:07;7.57;;;2.38;;
8100;SDS011;4093;53.470;9.832;2022-07-10T08:40:35;8.82;;;2.70;;
8100;SDS011;4093;53.470;9.832;2022-07-10T08:43:02;8.77;;;2.63;;
8100;SDS011;4093;53.470;9.832;2022-07-10T08:45:30;9.93;;;2.90;;
8100;SDS011;4093;53.470;9.832;2022-07-10T08:47:58;10.18;;;3.10;;
8100;SDS011;4093;53.470;9.832;2022-07-10T08:50:28;8.73;;;2.40;;
8100;SDS011;4093;53.470;9.832;2022-07-10T08:52:59;9.40;;;2.70;;
8100;SDS011;4093;53.470;9.832;2022-07-10T08:55:29;8.32;;;3.00;;
8100;SDS011;4093;53.470;9.832;2022-07-10T08:57:57;7.53;;;2.30;;
8100;SDS011;4093;53.470;9.832;2022-07-10T09:00:25;7.45;;;2.25;;
8100;SDS011;4093;53.470;9.832;2022-07-10T09:02:53;6.55;;;2.30;;
8100;SDS011;4093;53.470;9.832;2022-07-10T09:05:21;6.25;;;2.75;;
8100;SDS011;4093;53.470;9.832;2022-07-10T09:07:48;7.25;;;2.38;;
8100;SDS011;4093;53.470;9.832;2022-07-10T09:10:15;8.45;;;2.30;;
8100;SDS011;4093;53.470;9.832;2022-07-10T09:12:49;4.63;;;2.13;;
8100;SDS011;4093;53.470;9.832;2022-07-10T09:15:19;6.13;;;2.38;;
8100;SDS011;4093;53.470;9.832;2022-07-10T09:17:52;6.13;;;2.47;;
8100;SDS011;4093;53.470;9.832;2022-07-10T09:20:27;14.15;;;2.60;;
8100;SDS011;4093;53.470;9.832;2022-07-10T09:22:56;5.78;;;2.40;;
8100;SDS011;4093;53.470;9.832;2022-07-10T09:25:29;5.80;;;2.13;;
8100;SDS011;4093;53.470;9.832;2022-07-10T09:27:57;6.10;;;2.22;;
8100;SDS011;4093;53.470;9.832;2022-07-10T09:30:37;10.93;;;2.38;;
8100;SDS011;4093;53.470;9.832;2022-07-10T09:33:15;3.55;;;2.33;;
8100;SDS011;4093;53.470;9.832;2022-07-10T09:35:54;5.82;;;2.42;;
8100;SDS011;4093;53.470;9.832;2022-07-10T09:41:26;9.85;;;2.42;;
8100;SDS011;4093;53.470;9.832;2022-07-10T09:43:54;6.60;;;2.53;;
8100;SDS011;4093;53.470;9.832;2022-07-10T09:46:24;11.43;;;2.47;;
8100;SDS011;4093;53.470;9.832;2022-07-10T09:49:04;6.57;;;2.13;;
8100;SDS011;4093;53.470;9.832;2022-07-10T09:51:33;6.82;;;2.03;;
8100;SDS011;4093;53.470;9.832;2022-07-10T09:54:02;3.58;;;1.95;;
8100;SDS011;4093;53.470;9.832;2022-07-10T09:56:31;6.40;;;2.38;;
8100;SDS011;4093;53.470;9.832;2022-07-10T09:59:05;4.88;;;2.13;;
8100;SDS011;4093;53.470;9.832;2022-07-10T10:01:36;7.53;;;2.55;;
8100;SDS011;4093;53.470;9.832;2022-07-10T10:04:04;7.25;;;2.17;;
8100;SDS011;4093;53.470;9.832;2022-07-10T10:06:30;8.90;;;2.38;;
8100;SDS011;4093;53.470;9.832;2022-07-10T10:09:02;8.65;;;2.72;;
8100;SDS011;4093;53.470;9.832;2022-07-10T10:11:32;6.70;;;2.80;;
8100;SDS011;4093;53.470;9.832;2022-07-10T10:14:00;9.25;;;2.72;;
8100;SDS011;4093;53.470;9.832;2022-07-10T10:16:28;7.25;;;2.55;;
8100;SDS011;4093;53.470;9.832;2022-07-10T10:18:57;6.38;;;2.50;;
8100;SDS011;4093;53.470;9.832;2022-07-10T10:21:42;8.88;;;2.40;;
8100;SDS011;4093;53.470;9.832;2022-07-10T10:24:09;9.25;;;2.75;;
8100;SDS011;4093;53.470;9.832;2022-07-10T10:26:37;10.75;;;3.03;;
8100;SDS011;4093;53.470;9.832;2022-07-10T10:29:05;8.05;;;2.25;;
8100;SDS011;4093;53.470;9.832;2022-07-10T10:31:32;8.13;;;2.17;;
8100;SDS011;4093;53.470;9.832;2022-07-10T10:34:01;7.30;;;2.40;;
8100;SDS011;4093;53.470;9.832;2022-07-10T10:36:43;7.80;;;2.80;;
8100;SDS011;4093;53.470;9.832;2022-07-10T10:39:11;7.18;;;2.20;;
8100;SDS011;4093;53.470;9.832;2022-07-10T10:41:41;6.35;;;2.58;;
8100;SDS011;4093;53.470;9.832;2022-07-10T10:44:24;8.43;;;2.45;;
8100;SDS011;4093;53.470;9.832;2022-07-10T10:47:04;9.02;;;2.60;;
8100;SDS011;4093;53.470;9.832;2022-07-10T10:49:52;9.02;;;2.30;;
8100;SDS011;4093;53.470;9.832;2022-07-10T10:52:21;7.22;;;2.60;;
8100;SDS011;4093;53.470;9.832;2022-07-10T10:55:05;11.55;;;2.88;;
8100;SDS011;4093;53.470;9.832;2022-07-10T10:57:40;8.07;;;2.70;;
8100;SDS011;4093;53.470;9.832;2022-07-10T11:00:34;5.18;;;2.15;;
8100;SDS011;4093;53.470;9.832;2022-07-10T11:03:11;7.47;;;2.60;;
8100;SDS011;4093;53.470;9.832;2022-07-10T11:05:41;8.02;;;2.70;;
8100;SDS011;4093;53.470;9.832;2022-07-10T11:08:08;10.93;;;3.10;;
8100;SDS011;4093;53.470;9.832;2022-07-10T11:10:36;10.32;;;2.70;;
8100;SDS011;4093;53.470;9.832;2022-07-10T11:13:05;6.13;;;2.60;;
8100;SDS011;4093;53.470;9.832;2022-07-10T11:15:33;10.32;;;3.03;;
8100;SDS011;4093;53.470;9.832;2022-07-10T11:18:05;9.13;;;2.22;;
8100;SDS011;4093;53.470;9.832;2022-07-10T11:20:33;8.43;;;2.58;;
8100;SDS011;4093;53.470;9.832;2022-07-10T11:26:06;8.77;;;2.47;;
8100;SDS011;4093;53.470;9.832;2022-07-10T11:28:44;7.15;;;2.15;;
8100;SDS011;4093;53.470;9.832;2022-07-10T11:31:15;5.53;;;2.22;;
8100;SDS011;4093;53.470;9.832;2022-07-10T11:33:42;6.00;;;2.00;;
8100;SDS011;4093;53.470;9.832;2022-07-10T11:36:11;8.77;;;2.40;;
8100;SDS011;4093;53.470;9.832;2022-07-10T11:38:39;5.65;;;2.35;;
8100;SDS011;4093;53.470;9.832;2022-07-10T11:41:13;6.40;;;2.42;;
8100;SDS011;4093;53.470;9.832;2022-07-10T11:43:47;6.05;;;2.13;;
8100;SDS011;4093;53.470;9.832;2022-07-10T11:46:15;7.20;;;2.33;;
8100;SDS011;4093;53.470;9.832;2022-07-10T11:48:42;12.82;;;2.88;;
8100;SDS011;4093;53.470;9.832;2022-07-10T11:51:17;10.75;;;3.05;;
8100;SDS011;4093;53.470;9.832;2022-07-10T11:53:52;8.70;;;2.80;;
8100;SDS011;4093;53.470;9.832;2022-07-10T11:56:21;6.85;;;2.20;;
8100;SDS011;4093;53.470;9.832;2022-07-10T11:58:55;10.00;;;2.83;;
8100;SDS011;4093;53.470;9.832;2022-07-10T12:01:23;6.90;;;2.72;;
8100;SDS011;4093;53.470;9.832;2022-07-10T12:03:59;8.38;;;2.83;;
8100;SDS011;4093;53.470;9.832;2022-07-10T12:06:27;6.30;;;2.40;;
8100;SDS011;4093;53.470;9.832;2022-07-10T12:08:55;7.60;;;2.65;;
8100;SDS011;4093;53.470;9.832;2022-07-10T12:11:23;8.70;;;2.85;;
8100;SDS011;4093;53.470;9.832;2022-07-10T12:13:51;7.57;;;2.50;;
8100;SDS011;4093;53.470;9.832;2022-07-10T12:16:19;4.90;;;2.30;;
8100;SDS011;4093;53.470;9.832;2022-07-10T12:18:46;5.85;;;2.35;;
8100;SDS011;4093;53.470;9.832;2022-07-10T12:21:14;10.20;;;2.78;;
8100;SDS011;4093;53.470;9.832;2022-07-10T12:23:42;6.75;;;1.92;;
8100;SDS011;4093;53.470;9.832;2022-07-10T12:26:11;8.25;;;2.45;;
8100;SDS011;4093;53.470;9.832;2022-07-10T12:28:54;8.35;;;2.50;;
8100;SDS011;4093;53.470;9.832;2022-07-10T12:31:22;7.85;;;2.80;;
8100;SDS011;4093;53.470;9.832;2022-07-10T12:33:50;6.10;;;2.30;;
8100;SDS011;4093;53.470;9.832;2022-07-10T12:36:19;4.93;;;2.25;;
8100;SDS011;4093;53.470;9.832;2022-07-10T12:38:52;7.55;;;2.80;;
8100;SDS011;4093;53.470;9.832;2022-07-10T12:41:20;8.50;;;2.45;;
8100;SDS011;4093;53.470;9.832;2022-07-10T12:43:49;2.90;;;1.73;;
8100;SDS011;4093;53.470;9.832;2022-07-10T12:46:18;4.63;;;1.98;;
8100;SDS011;4093;53.470;9.832;2022-07-10T12:49:00;7.35;;;2.35;;
8100;SDS011;4093;53.470;9.832;2022-07-10T12:51:28;10.00;;;2.83;;
8100;SDS011;4093;53.470;9.832;2022-07-10T12:53:56;5.18;;;2.20;;
8100;SDS011;4093;53.470;9.832;2022-07-10T12:56:27;6.75;;;2.58;;
8100;SDS011;4093;53.470;9.832;2022-07-10T12:58:54;4.75;;;2.30;;
8100;SDS011;4093;53.470;9.832;2022-07-10T13:01:22;4.78;;;2.10;;
8100;SDS011;4093;53.470;9.832;2022-07-10T13:03:56;6.20;;;2.20;;
8100;SDS011;4093;53.470;9.832;2022-07-10T13:06:27;7.60;;;2.10;;
8100;SDS011;4093;53.470;9.832;2022-07-10T13:08:55;7.45;;;2.30;;
8100;SDS011;4093;53.470;9.832;2022-07-10T13:11:22;6.78;;;2.45;;
8100;SDS011;4093;53.470;9.832;2022-07-10T13:13:48;8.55;;;2.28;;
8100;SDS011;4093;53.470;9.832;2022-07-10T13:16:15;8.63;;;2.50;;
8100;SDS011;4093;53.470;9.832;2022-07-10T13:18:43;10.80;;;2.92;;
8100;SDS011;4093;53.470;9.832;2022-07-10T13:21:11;6.10;;;2.55;;
8100;SDS011;4093;53.470;9.832;2022-07-10T13:23:38;6.70;;;2.13;;
8100;SDS011;4093;53.470;9.832;2022-07-10T13:26:05;7.13;;;2.70;;
8100;SDS011;4093;53.470;9.832;2022-07-10T13:28:32;6.05;;;2.30;;
8100;SDS011;4093;53.470;9.832;2022-07-10T13:30:59;5.72;;;2.45;;
8100;SDS011;4093;53.470;9.832;2022-07-10T13:33:26;5.03;;;2.30;;
8100;SDS011;4093;53.470;9.832;2022-07-10T13:35:54;8.63;;;2.22;;
8100;SDS011;4093;53.470;9.832;2022-07-10T13:38:21;4.97;;;2.40;;
8100;SDS011;4093;53.470;9.832;2022-07-10T13:40:50;7.10;;;2.10;;
8100;SDS011;4093;53.470;9.832;2022-07-10T13:43:17;6.40;;;2.40;;
8100;SDS011;4093;53.470;9.832;2022-07-10T13:45:46;6.25;;;2.38;;
8100;SDS011;4093;53.470;9.832;2022-07-10T13:48:12;7.53;;;2.22;;
8100;SDS011;4093;53.470;9.832;2022-07-10T13:50:40;4.00;;;1.92;;
8100;SDS011;4093;53.470;9.832;2022-07-10T13:53:09;6.35;;;2.20;;
8100;SDS011;4093;53.470;9.832;2022-07-10T13:55:36;8.52;;;2.30;;
8100;SDS011;4093;53.470;9.832;2022-07-10T13:58:03;6.00;;;2.22;;
8100;SDS011;4093;53.470;9.832;2022-07-10T14:00:29;7.05;;;2.45;;
8100;SDS011;4093;53.470;9.832;2022-07-10T14:02:56;5.55;;;2.38;;
8100;SDS011;4093;53.470;9.832;2022-07-10T14:05:26;5.40;;;2.30;;
8100;SDS011;4093;53.470;9.832;2022-07-10T14:07:53;4.80;;;2.05;;
8100;SDS011;4093;53.470;9.832;2022-07-10T14:10:21;5.93;;;2.25;;
8100;SDS011;4093;53.470;9.832;2022-07-10T14:12:48;7.72;;;2.10;;
8100;SDS011;4093;53.470;9.832;2022-07-10T14:15:15;8.52;;;3.03;;
8100;SDS011;4093;53.470;9.832;2022-07-10T14:17:42;7.60;;;2.20;;
8100;SDS011;4093;53.470;9.832;2022-07-10T14:20:09;5.70;;;2.10;;
8100;SDS011;4093;53.470;9.832;2022-07-10T14:22:37;6.05;;;2.45;;
8100;SDS011;4093;53.470;9.832;2022-07-10T14:25:04;4.45;;;1.90;;
8100;SDS011;4093;53.470;9.832;2022-07-10T14:27:35;6.45;;;2.20;;
8100;SDS011;4093;53.470;9.832;2022-07-10T14:30:01;5.13;;;2.25;;
8100;SDS011;4093;53.470;9.832;2022-07-10T14:32:29;7.00;;;1.92;;
8100;SDS011;4093;53.470;9.832;2022-07-10T14:34:56;4.88;;;2.10;;
8100;SDS011;4093;53.470;9.832;2022-07-10T14:37:22;10.60;;;2.80;;
8100;SDS011;4093;53.470;9.832;2022-07-10T14:39:49;7.60;;;2.03;;
8100;SDS011;4093;53.470;9.832;2022-07-10T14:42:16;7.70;;;2.20;;
8100;SDS011;4093;53.470;9.832;2022-07-10T14:44:44;6.40;;;2.35;;
8100;SDS011;4093;53.470;9.832;2022-07-10T14:47:10;5.95;;;2.17;;
8100;SDS011;4093;53.470;9.832;2022-07-10T14:49:37;6.88;;;2.53;;
8100;SDS011;4093;53.470;9.832;2022-07-10T14:52:04;9.60;;;2.67;;
8100;SDS011;4093;53.470;9.832;2022-07-10T14:54:30;7.47;;;2.35;;
8100;SDS011;4093;53.470;9.832;2022-07-10T14:56:57;9.80;;;2.38;;
8100;SDS011;4093;53.470;9.832;2022-07-10T14:59:24;8.65;;;2.42;;
8100;SDS011;4093;53.470;9.832;2022-07-10T15:01:52;5.63;;;2.17;;
8100;SDS011;4093;53.470;9.832;2022-07-10T15:04:18;3.47;;;2.20;;
8100;SDS011;4093;53.470;9.832;2022-07-10T15:06:45;5.68;;;2.20;;
8100;SDS011;4093;53.470;9.832;2022-07-10T15:09:12;7.47;;;2.58;;
8100;SDS011;4093;53.470;9.832;2022-07-10T15:11:39;5.50;;;2.05;;
8100;SDS011;4093;53.470;9.832;2022-07-10T15:14:06;8.88;;;2.60;;
8100;SDS011;4093;53.470;9.832;2022-07-10T15:16:32;7.55;;;2.30;;
8100;SDS011;4093;53.470;9.832;2022-07-10T15:19:01;3.53;;;2.05;;
8100;SDS011;4093;53.470;9.832;2022-07-10T15:21:27;6.60;;;2.45;;
8100;SDS011;4093;53.470;9.832;2022-07-10T15:23:56;5.25;;;2.08;;
8100;SDS011;4093;53.470;9.832;2022-07-10T15:26:22;4.90;;;2.30;;